Portada
METAR-TAF:

METAR-TAF

Aeroports :

Patna, Índia

latitud: 25-36N, longitud: 085-06E, altitud: 51 m

Observació

L'informe es va fer fa 17 minuts, a les 05:00 UTC
Vent 5 kt del Oest
Temperatura 27°C
Humitat 84%
Pressió 1013 hPa
Visibilitat: 1500 m
Núvols disperses a una alçada de 1800 ft
Cel ennuvolat a una alçada de 10000 ft
boirina

METAR: VEPT 210500Z 27005KT 1500 R25/2000 BR SCT018 BKN100 27/24 Q1013 NOSIG

Hora: 10:47 (05:17 UTC)

Pronòstic

L'informe es va fer fa 3 hores i 17 minuts, a les 02:00 UTC
Pronòstic vàlid del 21 a les 03 UTC al 21 a les 12 UTC
Vent 3 kt del Oest
Visibilitat: 1500 m
Núvols disperses a una alçada de 1800 ft
Cel ennuvolat a una alçada de 9000 ft
pluja, boirina
Evolucionant progressivament
l' 21 a les 06 UTC al 21 a les 08 UTC
Visibilitat: 3000 m
pluja, calitja
Evolucionant progressivament
l' 21 a les 09 UTC al 21 a les 11 UTC
Visibilitat: 4500 m
calitja

TAF: VEPT 210200Z 2103/2112 27003KT 1500 -RA BR SCT018 BKN090 BECMG 2106/2108 3000 -RA HZ BECMG 2109/2111 4500 HZ

Observacions i pronòstics meteorològics de més de 4000 aeroports (METAR i TAF).

Les estacions disponibles són els punts grocs i vermells al mapa.

Posi el ratolí al punt desitjat per veure el nom de l'estació.

Feu clic per veure les observacions i els pronòstics meteorològics.

Per canviar el mapa: feu clic els botons verds amb una creu de color negre per apropar; al botó verd amb un guió per allunyar la imatge; o en les fletxes verdes per a mapes adjacents.


METAR-TAF: